createdAt,value
2023-02-19T00:00:03.050Z,20
2023-02-19T00:01:03.077Z,20
2023-02-19T00:02:03.057Z,20
2023-02-19T00:03:03.051Z,20
2023-02-19T00:04:03.050Z,19
2023-02-19T00:05:03.116Z,19
2023-02-19T00:06:03.145Z,18
2023-02-19T00:07:03.054Z,18
2023-02-19T00:08:03.056Z,20
2023-02-19T00:09:03.064Z,20
2023-02-19T00:10:03.049Z,19
2023-02-19T00:11:03.049Z,22
2023-02-19T00:12:03.042Z,20
2023-02-19T00:13:03.048Z,20
2023-02-19T00:14:03.078Z,20
2023-02-19T00:15:03.082Z,20
2023-02-19T00:16:03.110Z,19
2023-02-19T00:17:03.042Z,19
2023-02-19T00:18:03.075Z,19
2023-02-19T00:19:03.043Z,20
2023-02-19T00:20:03.058Z,19
2023-02-19T00:21:03.041Z,19
2023-02-19T00:22:03.052Z,19
2023-02-19T00:23:03.051Z,18
2023-02-19T00:24:03.043Z,17
2023-02-19T00:26:16.207Z,19
2023-02-19T00:27:03.056Z,18
2023-02-19T00:28:03.057Z,18
2023-02-19T00:29:03.052Z,18
2023-02-19T00:30:03.103Z,18
2023-02-19T00:31:03.085Z,18
2023-02-19T00:32:03.123Z,18
2023-02-19T00:33:03.055Z,18
2023-02-19T00:34:03.087Z,16
2023-02-19T00:35:03.063Z,18
2023-02-19T00:36:03.148Z,18
2023-02-19T00:37:03.081Z,16
2023-02-19T00:38:03.069Z,17
2023-02-19T00:39:03.049Z,17
2023-02-19T00:40:03.050Z,17
2023-02-19T00:41:03.058Z,17
2023-02-19T00:42:03.052Z,16
2023-02-19T00:43:03.063Z,16
2023-02-19T00:44:03.083Z,16
2023-02-19T00:45:03.056Z,16
2023-02-19T00:46:03.118Z,16
2023-02-19T00:47:03.056Z,16
2023-02-19T00:48:03.048Z,17
2023-02-19T00:49:03.050Z,17
2023-02-19T00:50:03.067Z,17
2023-02-19T00:51:03.045Z,17
2023-02-19T00:52:03.090Z,18
2023-02-19T00:53:03.051Z,19
2023-02-19T00:54:03.082Z,19
2023-02-19T00:55:03.055Z,19
2023-02-19T00:56:03.064Z,19
2023-02-19T00:57:03.080Z,21
2023-02-19T00:58:03.069Z,21
2023-02-19T00:59:03.057Z,22
2023-02-19T01:00:03.070Z,22
2023-02-19T01:01:03.052Z,22
2023-02-19T01:04:04.880Z,23
2023-02-19T01:05:03.105Z,22
2023-02-19T01:06:03.065Z,23
2023-02-19T01:07:03.063Z,25
2023-02-19T01:08:03.059Z,24
2023-02-19T01:09:03.062Z,24
2023-02-19T01:10:03.061Z,24
2023-02-19T01:11:03.058Z,23
2023-02-19T01:12:03.062Z,25
2023-02-19T01:13:03.058Z,23
2023-02-19T01:14:03.077Z,24
2023-02-19T01:15:03.217Z,25
2023-02-19T01:16:03.116Z,21
2023-02-19T01:18:03.056Z,23
2023-02-19T01:19:03.061Z,24
2023-02-19T01:20:03.077Z,26
2023-02-19T01:21:03.057Z,27
2023-02-19T01:22:03.059Z,28
2023-02-19T01:23:03.059Z,28
2023-02-19T01:24:03.058Z,29
2023-02-19T01:25:03.070Z,28
2023-02-19T01:26:03.069Z,27
2023-02-19T01:27:03.060Z,28
2023-02-19T01:28:03.062Z,32
2023-02-19T01:29:03.063Z,30
2023-02-19T01:30:03.112Z,32
2023-02-19T01:31:03.095Z,29
2023-02-19T01:32:03.235Z,29
2023-02-19T01:33:03.050Z,31
2023-02-19T01:34:03.061Z,32
2023-02-19T01:35:03.070Z,32
2023-02-19T01:36:03.063Z,32
2023-02-19T01:37:03.061Z,32
2023-02-19T01:38:03.067Z,32
2023-02-19T01:39:03.071Z,30
2023-02-19T01:40:03.059Z,29
2023-02-19T01:41:03.080Z,29
2023-02-19T01:43:03.057Z,29
2023-02-19T01:44:03.064Z,28
2023-02-19T01:45:03.060Z,27
2023-02-19T01:46:03.054Z,28
2023-02-19T01:47:03.281Z,27
2023-02-19T01:48:03.112Z,26
2023-02-19T01:49:03.064Z,27
2023-02-19T01:50:03.075Z,26
2023-02-19T01:51:03.062Z,27
2023-02-19T01:52:03.063Z,27
2023-02-19T01:53:03.084Z,25
2023-02-19T01:54:03.067Z,25
2023-02-19T01:55:03.067Z,24
2023-02-19T01:56:03.066Z,24
2023-02-19T01:57:03.069Z,21
2023-02-19T01:58:03.072Z,20
2023-02-19T01:59:03.072Z,20
2023-02-19T02:00:03.064Z,20
2023-02-19T02:01:03.121Z,20
2023-02-19T02:02:03.151Z,20
2023-02-19T02:03:03.076Z,20
2023-02-19T02:04:03.071Z,20
2023-02-19T02:05:03.097Z,20
2023-02-19T02:06:03.110Z,20
2023-02-19T02:07:03.067Z,19
2023-02-19T02:08:03.066Z,18
2023-02-19T02:09:03.069Z,19
2023-02-19T02:10:03.059Z,18
2023-02-19T02:11:03.151Z,19
2023-02-19T02:12:03.067Z,19
2023-02-19T02:13:03.103Z,19
2023-02-19T02:14:03.070Z,18
2023-02-19T02:15:03.072Z,19
2023-02-19T02:16:03.103Z,19
2023-02-19T02:17:03.073Z,20
2023-02-19T02:18:03.069Z,19
2023-02-19T02:19:03.094Z,19
2023-02-19T02:20:03.084Z,19
2023-02-19T02:21:03.069Z,19
2023-02-19T02:22:03.068Z,18
2023-02-19T02:23:03.174Z,19
2023-02-19T02:25:03.071Z,19
2023-02-19T02:26:03.252Z,20
2023-02-19T02:27:03.072Z,19
2023-02-19T02:28:03.091Z,19
2023-02-19T02:29:03.069Z,20
2023-02-19T02:30:03.123Z,21
2023-02-19T02:31:03.123Z,20
2023-02-19T02:32:03.192Z,21
2023-02-19T02:33:03.068Z,20
2023-02-19T02:34:03.074Z,20
2023-02-19T02:35:03.086Z,18
2023-02-19T02:36:03.076Z,20
2023-02-19T02:37:03.077Z,19
2023-02-19T02:38:03.075Z,20
2023-02-19T02:39:03.077Z,21
2023-02-19T02:40:03.078Z,17
2023-02-19T02:41:03.073Z,19
2023-02-19T02:42:03.073Z,20
2023-02-19T02:43:03.077Z,19
2023-02-19T02:45:03.094Z,20
2023-02-19T02:46:03.153Z,20
2023-02-19T02:47:03.081Z,20
2023-02-19T02:48:03.072Z,19
2023-02-19T02:50:03.078Z,20
2023-02-19T02:51:03.104Z,20
2023-02-19T02:52:03.079Z,20
2023-02-19T02:53:03.078Z,21
2023-02-19T02:54:03.097Z,19
2023-02-19T02:55:03.098Z,19
2023-02-19T02:56:03.069Z,19
2023-02-19T02:57:03.083Z,20
2023-02-19T02:58:03.072Z,19
2023-02-19T02:59:03.089Z,18
2023-02-19T03:00:03.071Z,20
2023-02-19T03:01:03.116Z,17
2023-02-19T03:02:03.110Z,18
2023-02-19T03:03:03.093Z,18
2023-02-19T03:04:03.093Z,18
2023-02-19T03:05:03.098Z,18
2023-02-19T03:06:03.140Z,17
2023-02-19T03:07:03.079Z,17
2023-02-19T03:08:03.071Z,18
2023-02-19T03:09:03.075Z,18
2023-02-19T03:11:03.077Z,17
2023-02-19T03:12:03.081Z,18
2023-02-19T03:13:03.085Z,18
2023-02-19T03:14:03.079Z,19
2023-02-19T03:15:03.181Z,18
2023-02-19T03:16:03.080Z,19
2023-02-19T03:17:03.136Z,18
2023-02-19T03:18:03.093Z,18
2023-02-19T03:19:03.075Z,18
2023-02-19T03:20:03.077Z,17
2023-02-19T03:21:03.078Z,18
2023-02-19T03:22:03.075Z,18
2023-02-19T03:23:03.088Z,18
2023-02-19T03:24:03.109Z,18
2023-02-19T03:25:03.085Z,17
2023-02-19T03:26:03.078Z,17
2023-02-19T03:27:03.068Z,18
2023-02-19T03:28:03.083Z,16
2023-02-19T03:29:03.087Z,16
2023-02-19T03:30:03.100Z,15
2023-02-19T03:31:03.089Z,16
2023-02-19T03:32:03.172Z,17
2023-02-19T03:33:03.081Z,17
2023-02-19T03:34:03.068Z,16
2023-02-19T03:35:03.083Z,16
2023-02-19T03:36:03.086Z,14
2023-02-19T03:37:03.084Z,15
2023-02-19T03:38:03.076Z,15
2023-02-19T03:39:03.090Z,14
2023-02-19T03:40:03.078Z,14
2023-02-19T03:42:03.081Z,15
2023-02-19T03:43:03.076Z,15
2023-02-19T03:44:03.081Z,15
2023-02-19T03:45:03.080Z,15
2023-02-19T03:46:03.153Z,14
2023-02-19T03:47:03.073Z,15
2023-02-19T03:48:03.094Z,15
2023-02-19T03:49:03.088Z,14
2023-02-19T03:50:03.090Z,14
2023-02-19T03:51:03.220Z,14
2023-02-19T03:52:03.077Z,14
2023-02-19T03:53:03.074Z,14
2023-02-19T03:54:03.076Z,13
2023-02-19T03:55:03.087Z,14
2023-02-19T03:56:03.089Z,14
2023-02-19T03:57:03.087Z,14
2023-02-19T03:58:03.075Z,14
2023-02-19T03:59:03.101Z,14
2023-02-19T04:00:03.103Z,15
2023-02-19T04:01:03.088Z,14
2023-02-19T04:02:03.158Z,14
2023-02-19T04:03:03.099Z,14
2023-02-19T04:04:03.087Z,14
2023-02-19T04:05:03.133Z,14
2023-02-19T04:06:03.091Z,13
2023-02-19T04:07:03.082Z,14
2023-02-19T04:08:03.138Z,14
2023-02-19T04:09:03.118Z,14
2023-02-19T04:10:03.094Z,13
2023-02-19T04:11:03.086Z,14
2023-02-19T04:12:03.097Z,14
2023-02-19T04:14:03.091Z,14
2023-02-19T04:15:03.099Z,13
2023-02-19T04:16:03.088Z,13
2023-02-19T04:17:03.105Z,13
2023-02-19T04:18:03.097Z,13
2023-02-19T04:19:03.085Z,13
2023-02-19T04:20:03.091Z,14
2023-02-19T04:21:03.089Z,13
2023-02-19T04:22:03.088Z,13
2023-02-19T04:23:03.092Z,14
2023-02-19T04:24:03.088Z,14
2023-02-19T04:25:03.110Z,13
2023-02-19T04:26:03.093Z,12
2023-02-19T04:27:03.092Z,13
2023-02-19T04:28:03.090Z,13
2023-02-19T04:29:03.084Z,13
2023-02-19T04:30:03.129Z,13
2023-02-19T04:31:03.115Z,12
2023-02-19T04:32:03.162Z,13
2023-02-19T04:33:03.105Z,13
2023-02-19T04:35:03.084Z,12
2023-02-19T04:36:03.086Z,13
2023-02-19T04:37:03.122Z,13
2023-02-19T04:38:03.080Z,13
2023-02-19T04:39:03.162Z,12
2023-02-19T04:40:03.089Z,13
2023-02-19T04:41:03.086Z,12
2023-02-19T04:42:03.090Z,13
2023-02-19T04:43:03.086Z,13
2023-02-19T04:45:03.094Z,13
2023-02-19T04:46:03.140Z,13
2023-02-19T04:47:03.101Z,12
2023-02-19T04:48:03.100Z,12
2023-02-19T04:50:03.108Z,12
2023-02-19T04:51:03.096Z,11
2023-02-19T04:52:03.086Z,12
2023-02-19T04:53:03.083Z,12
2023-02-19T04:54:03.093Z,12
2023-02-19T04:55:03.092Z,12
2023-02-19T04:56:03.100Z,13
2023-02-19T04:57:03.091Z,12
2023-02-19T04:58:03.087Z,13
2023-02-19T04:59:03.090Z,12
2023-02-19T05:00:03.096Z,13
2023-02-19T05:01:03.085Z,13
2023-02-19T05:02:03.100Z,12
2023-02-19T05:03:03.093Z,13
2023-02-19T05:04:03.134Z,13
2023-02-19T05:05:03.089Z,12
2023-02-19T05:06:03.095Z,13
2023-02-19T05:07:03.093Z,14
2023-02-19T05:08:03.099Z,13
2023-02-19T05:09:03.175Z,13
2023-02-19T05:10:03.094Z,13
2023-02-19T05:11:03.087Z,13
2023-02-19T05:12:03.086Z,12
2023-02-19T05:13:03.088Z,13
2023-02-19T05:14:03.108Z,13
2023-02-19T05:15:03.097Z,12
2023-02-19T05:16:03.159Z,12
2023-02-19T05:17:03.088Z,12
2023-02-19T05:18:03.093Z,12
2023-02-19T05:19:03.090Z,12
2023-02-19T05:20:03.093Z,12
2023-02-19T05:21:03.170Z,13
2023-02-19T05:22:03.099Z,12
2023-02-19T05:23:03.091Z,13
2023-02-19T05:24:03.143Z,12
2023-02-19T05:25:03.109Z,12
2023-02-19T05:26:03.111Z,12
2023-02-19T05:27:03.111Z,12
2023-02-19T05:28:03.105Z,12
2023-02-19T05:29:03.108Z,13
2023-02-19T05:30:03.110Z,13
2023-02-19T05:31:03.140Z,13
2023-02-19T05:32:03.116Z,12
2023-02-19T05:33:03.094Z,12
2023-02-19T05:35:03.102Z,11
2023-02-19T05:36:03.088Z,11
2023-02-19T05:37:03.101Z,11
2023-02-19T05:38:03.106Z,11
2023-02-19T05:39:03.093Z,12
2023-02-19T05:40:03.088Z,11
2023-02-19T05:41:03.091Z,12
2023-02-19T05:42:03.115Z,12
2023-02-19T05:43:03.097Z,11
2023-02-19T05:44:03.109Z,11
2023-02-19T05:45:03.379Z,11
2023-02-19T05:46:03.107Z,12
2023-02-19T05:47:03.112Z,11
2023-02-19T05:48:03.103Z,11
2023-02-19T05:49:03.090Z,11
2023-02-19T05:50:03.130Z,11
2023-02-19T05:51:03.116Z,11
2023-02-19T05:52:03.125Z,11
2023-02-19T05:53:03.097Z,11
2023-02-19T05:54:03.108Z,11
2023-02-19T05:55:03.108Z,11
2023-02-19T05:56:03.139Z,11
2023-02-19T05:57:03.109Z,11
2023-02-19T05:58:03.098Z,11
2023-02-19T05:59:03.110Z,11
2023-02-19T06:00:03.106Z,11
2023-02-19T06:01:03.108Z,11
2023-02-19T06:02:03.096Z,11
2023-02-19T06:03:03.192Z,11
2023-02-19T06:04:03.174Z,12
2023-02-19T06:06:03.108Z,11
2023-02-19T06:07:03.098Z,12
2023-02-19T06:08:03.117Z,10
2023-02-19T06:09:03.120Z,11
2023-02-19T06:10:03.118Z,11
2023-02-19T06:11:03.104Z,10
2023-02-19T06:12:03.112Z,10
2023-02-19T06:13:03.101Z,10
2023-02-19T06:14:03.104Z,9
2023-02-19T06:15:03.101Z,10
2023-02-19T06:17:03.100Z,11
2023-02-19T06:18:03.096Z,10
2023-02-19T06:19:03.102Z,11
2023-02-19T06:20:03.283Z,12
2023-02-19T06:21:03.114Z,11
2023-02-19T06:22:03.119Z,11
2023-02-19T06:23:03.097Z,11
2023-02-19T06:24:03.108Z,12
2023-02-19T06:25:03.112Z,11
2023-02-19T06:26:03.103Z,11
2023-02-19T06:27:03.128Z,10
2023-02-19T06:28:03.105Z,11
2023-02-19T06:29:03.123Z,10
2023-02-19T06:30:03.200Z,9
2023-02-19T06:31:03.137Z,10
2023-02-19T06:32:03.303Z,10
2023-02-19T06:33:03.101Z,10
2023-02-19T06:34:03.119Z,10
2023-02-19T06:35:03.110Z,10
2023-02-19T06:36:03.106Z,11
2023-02-19T06:38:03.114Z,9
2023-02-19T06:39:03.157Z,9
2023-02-19T06:40:03.111Z,10
2023-02-19T06:41:03.109Z,10
2023-02-19T06:42:03.112Z,11
2023-02-19T06:43:03.125Z,10
2023-02-19T06:44:03.120Z,11
2023-02-19T06:45:03.109Z,11
2023-02-19T06:46:03.117Z,10
2023-02-19T06:48:03.112Z,10
2023-02-19T06:49:03.108Z,11
2023-02-19T06:50:03.114Z,11
2023-02-19T06:51:03.214Z,11
2023-02-19T06:53:03.126Z,12
2023-02-19T06:54:03.122Z,11
2023-02-19T06:55:03.114Z,12
2023-02-19T06:56:03.123Z,11
2023-02-19T06:57:03.110Z,11
2023-02-19T06:58:03.117Z,11
2023-02-19T06:59:03.117Z,11
2023-02-19T07:00:03.174Z,12
2023-02-19T07:01:03.253Z,12
2023-02-19T07:02:03.116Z,12
2023-02-19T07:03:05.439Z,12
2023-02-19T07:04:03.183Z,11
2023-02-19T07:05:03.104Z,11
2023-02-19T07:06:03.187Z,10
2023-02-19T07:07:03.114Z,10
2023-02-19T07:08:03.123Z,10
2023-02-19T07:09:03.115Z,10
2023-02-19T07:10:03.114Z,9
2023-02-19T07:11:03.104Z,9
2023-02-19T07:12:03.151Z,9
2023-02-19T07:13:03.122Z,10
2023-02-19T07:14:03.119Z,10
2023-02-19T07:15:03.133Z,9
2023-02-19T07:16:03.155Z,9
2023-02-19T07:17:03.109Z,9
2023-02-19T07:18:03.110Z,8
2023-02-19T07:19:03.135Z,9
2023-02-19T07:20:03.107Z,8
2023-02-19T07:21:03.109Z,9
2023-02-19T07:22:03.110Z,9
2023-02-19T07:24:03.116Z,9
2023-02-19T07:25:03.130Z,9
2023-02-19T07:26:03.135Z,9
2023-02-19T07:27:03.128Z,8
2023-02-19T07:28:03.117Z,8
2023-02-19T07:30:03.299Z,9
2023-02-19T07:31:03.134Z,8
2023-02-19T07:32:03.145Z,8
2023-02-19T07:33:03.123Z,9
2023-02-19T07:34:03.122Z,8
2023-02-19T07:35:03.113Z,9
2023-02-19T07:36:03.114Z,9
2023-02-19T07:37:03.153Z,9
2023-02-19T07:38:03.109Z,8
2023-02-19T07:39:03.131Z,8
2023-02-19T07:40:03.112Z,8
2023-02-19T07:41:03.111Z,8
2023-02-19T07:42:03.119Z,8
2023-02-19T07:44:03.122Z,8
2023-02-19T07:45:03.119Z,8
2023-02-19T07:46:03.160Z,7
2023-02-19T07:47:03.109Z,8
2023-02-19T07:49:03.115Z,7
2023-02-19T07:50:03.134Z,8
2023-02-19T07:51:03.166Z,8
2023-02-19T07:52:03.120Z,7
2023-02-19T07:53:03.118Z,8
2023-02-19T07:54:03.134Z,8
2023-02-19T07:55:03.112Z,8
2023-02-19T07:56:03.122Z,8
2023-02-19T07:57:03.114Z,8
2023-02-19T07:58:05.214Z,8
2023-02-19T07:59:03.127Z,8
2023-02-19T08:00:03.126Z,8
2023-02-19T08:01:03.142Z,8
2023-02-19T08:02:03.130Z,9
2023-02-19T08:03:03.254Z,9
2023-02-19T08:04:03.122Z,8
2023-02-19T08:05:03.125Z,9
2023-02-19T08:06:03.130Z,8
2023-02-19T08:07:03.132Z,8
2023-02-19T08:08:03.125Z,8
2023-02-19T08:09:03.120Z,8
2023-02-19T08:10:03.124Z,8
2023-02-19T08:11:03.128Z,8
2023-02-19T08:12:03.122Z,8
2023-02-19T08:13:03.121Z,9
2023-02-19T08:14:03.129Z,8
2023-02-19T08:15:03.118Z,9
2023-02-19T08:16:16.994Z,9
2023-02-19T08:17:03.142Z,9
2023-02-19T08:18:03.125Z,9
2023-02-19T08:20:03.116Z,11
2023-02-19T08:21:03.124Z,10
2023-02-19T08:22:03.121Z,11
2023-02-19T08:23:03.126Z,12
2023-02-19T08:24:03.148Z,11
2023-02-19T08:25:03.179Z,11
2023-02-19T08:26:03.131Z,11
2023-02-19T08:27:03.144Z,10
2023-02-19T08:28:03.130Z,10
2023-02-19T08:29:03.128Z,10
2023-02-19T08:30:03.177Z,10
2023-02-19T08:31:03.233Z,10
2023-02-19T08:32:03.179Z,10
2023-02-19T08:33:03.133Z,10
2023-02-19T08:34:03.128Z,10
2023-02-19T08:35:03.128Z,10
2023-02-19T08:36:03.130Z,10
2023-02-19T08:37:03.127Z,9
2023-02-19T08:38:03.125Z,9
2023-02-19T08:39:03.132Z,8
2023-02-19T08:40:03.124Z,9
2023-02-19T08:41:03.199Z,9
2023-02-19T08:42:03.133Z,9
2023-02-19T08:43:03.122Z,9
2023-02-19T08:44:03.133Z,10
2023-02-19T08:45:03.128Z,10
2023-02-19T08:46:03.135Z,10
2023-02-19T08:47:03.135Z,9
2023-02-19T08:48:03.135Z,9
2023-02-19T08:49:03.145Z,9
2023-02-19T08:50:03.142Z,9
2023-02-19T08:51:03.125Z,9
2023-02-19T08:52:03.125Z,9
2023-02-19T08:53:03.120Z,10
2023-02-19T08:54:03.133Z,9
2023-02-19T08:55:03.124Z,9
2023-02-19T08:56:03.134Z,10
2023-02-19T08:57:03.132Z,9
2023-02-19T08:58:03.126Z,10
2023-02-19T08:59:03.903Z,9
2023-02-19T09:00:03.127Z,9
2023-02-19T09:01:03.174Z,9
2023-02-19T09:02:03.128Z,9
2023-02-19T09:03:03.134Z,9
2023-02-19T09:04:03.135Z,9
2023-02-19T09:05:03.133Z,9
2023-02-19T09:06:03.120Z,9
2023-02-19T09:07:03.128Z,8
2023-02-19T09:08:03.117Z,9
2023-02-19T09:09:03.144Z,9
2023-02-19T09:10:03.121Z,8
2023-02-19T09:12:03.118Z,8
2023-02-19T09:13:03.206Z,8
2023-02-19T09:14:03.127Z,8
2023-02-19T09:15:03.126Z,9
2023-02-19T09:16:03.260Z,8
2023-02-19T09:17:03.135Z,7
2023-02-19T09:18:03.137Z,8
2023-02-19T09:19:03.153Z,7
2023-02-19T09:20:03.123Z,7
2023-02-19T09:21:03.139Z,7
2023-02-19T09:22:03.135Z,9
2023-02-19T09:23:03.123Z,8
2023-02-19T09:24:03.132Z,8
2023-02-19T09:25:03.137Z,9
2023-02-19T09:26:03.149Z,8
2023-02-19T09:27:03.151Z,7
2023-02-19T09:28:03.132Z,10
2023-02-19T09:29:03.132Z,9
2023-02-19T09:30:03.160Z,8
2023-02-19T09:31:03.202Z,8
2023-02-19T09:33:03.178Z,9
2023-02-19T09:34:03.132Z,8
2023-02-19T09:35:03.181Z,8
2023-02-19T09:36:03.129Z,8
2023-02-19T09:38:03.129Z,8
2023-02-19T09:39:03.132Z,7
2023-02-19T09:40:03.129Z,7
2023-02-19T09:41:03.132Z,8
2023-02-19T09:42:03.133Z,7
2023-02-19T09:43:03.148Z,7
2023-02-19T09:44:03.140Z,8
2023-02-19T09:45:03.133Z,7
2023-02-19T09:46:03.157Z,7
2023-02-19T09:48:03.132Z,7
2023-02-19T09:49:03.132Z,8
2023-02-19T09:50:03.150Z,7
2023-02-19T09:51:03.132Z,8
2023-02-19T09:52:03.142Z,7
2023-02-19T09:53:03.137Z,6
2023-02-19T09:54:03.164Z,8
2023-02-19T09:55:03.156Z,7
2023-02-19T09:56:03.137Z,7
2023-02-19T09:57:03.138Z,7
2023-02-19T09:58:03.137Z,7
2023-02-19T09:59:03.140Z,6
2023-02-19T10:00:03.155Z,7
2023-02-19T10:01:03.154Z,6
2023-02-19T10:02:03.131Z,6
2023-02-19T10:03:03.131Z,6
2023-02-19T10:04:03.130Z,6
2023-02-19T10:05:03.210Z,5
2023-02-19T10:06:03.140Z,6
2023-02-19T10:08:03.128Z,5
2023-02-19T10:09:03.131Z,6
2023-02-19T10:10:03.133Z,6
2023-02-19T10:11:03.136Z,5
2023-02-19T10:13:03.138Z,5
2023-02-19T10:14:03.145Z,5
2023-02-19T10:15:03.148Z,5
2023-02-19T10:16:03.164Z,5
2023-02-19T10:17:03.142Z,4
2023-02-19T10:18:03.135Z,4
2023-02-19T10:19:03.136Z,4
2023-02-19T10:20:03.146Z,4
2023-02-19T10:21:03.149Z,4
2023-02-19T10:22:03.154Z,4
2023-02-19T10:23:03.146Z,4
2023-02-19T10:24:03.135Z,4
2023-02-19T10:25:03.132Z,4
2023-02-19T10:26:03.151Z,4
2023-02-19T10:27:03.128Z,4
2023-02-19T10:29:03.141Z,4
2023-02-19T10:30:03.183Z,4
2023-02-19T10:31:03.281Z,4
2023-02-19T10:32:03.190Z,4
2023-02-19T10:33:03.129Z,4
2023-02-19T10:34:03.140Z,4
2023-02-19T10:35:03.141Z,4
2023-02-19T10:36:03.139Z,4
2023-02-19T10:37:03.181Z,4
2023-02-19T10:38:03.137Z,4
2023-02-19T10:39:03.133Z,4
2023-02-19T10:40:03.154Z,4
2023-02-19T10:41:03.152Z,4
2023-02-19T10:42:03.146Z,4
2023-02-19T10:43:03.139Z,4
2023-02-19T10:44:03.146Z,4
2023-02-19T10:45:03.145Z,4
2023-02-19T10:46:03.143Z,4
2023-02-19T10:47:03.145Z,4
2023-02-19T10:48:03.139Z,5
2023-02-19T10:49:03.144Z,4
2023-02-19T10:50:04.767Z,5
2023-02-19T10:51:03.142Z,4
2023-02-19T10:52:03.153Z,5
2023-02-19T10:53:03.161Z,4
2023-02-19T10:54:03.181Z,4
2023-02-19T10:55:03.145Z,4
2023-02-19T10:56:03.138Z,4
2023-02-19T10:57:03.152Z,4
2023-02-19T10:59:03.140Z,4
2023-02-19T11:00:03.152Z,4
2023-02-19T11:01:05.322Z,3
2023-02-19T11:02:03.228Z,3
2023-02-19T11:03:03.169Z,3
2023-02-19T11:04:03.153Z,3
2023-02-19T11:05:03.145Z,3
2023-02-19T11:06:03.168Z,4
2023-02-19T11:07:03.159Z,3
2023-02-19T11:08:03.140Z,3
2023-02-19T11:09:03.158Z,3
2023-02-19T11:10:03.149Z,3
2023-02-19T11:11:03.141Z,3
2023-02-19T11:12:03.165Z,3
2023-02-19T11:13:03.176Z,3
2023-02-19T11:14:03.148Z,4
2023-02-19T11:15:03.142Z,3
2023-02-19T11:16:03.185Z,3
2023-02-19T11:17:03.140Z,4
2023-02-19T11:18:03.166Z,3
2023-02-19T11:19:03.161Z,3
2023-02-19T11:20:03.143Z,3
2023-02-19T11:21:03.148Z,3
2023-02-19T11:22:03.155Z,3
2023-02-19T11:23:03.165Z,3
2023-02-19T11:24:03.151Z,3
2023-02-19T11:25:03.155Z,3
2023-02-19T11:26:03.143Z,3
2023-02-19T11:27:03.147Z,3
2023-02-19T11:28:03.219Z,4
2023-02-19T11:29:03.143Z,3
2023-02-19T11:30:03.158Z,3
2023-02-19T11:31:03.176Z,3
2023-02-19T11:32:03.226Z,3
2023-02-19T11:33:03.153Z,3
2023-02-19T11:36:03.157Z,2
2023-02-19T11:37:03.164Z,3
2023-02-19T11:38:03.161Z,3
2023-02-19T11:39:03.170Z,3
2023-02-19T11:41:03.154Z,3
2023-02-19T11:42:03.158Z,3
2023-02-19T11:43:03.178Z,3
2023-02-19T11:44:03.166Z,2
2023-02-19T11:45:03.230Z,2
2023-02-19T11:46:03.155Z,2
2023-02-19T11:47:03.166Z,3
2023-02-19T11:49:03.158Z,3
2023-02-19T11:50:03.185Z,2
2023-02-19T11:51:03.158Z,3
2023-02-19T11:52:03.194Z,3
2023-02-19T11:53:03.154Z,3
2023-02-19T11:54:03.167Z,2
2023-02-19T11:55:03.163Z,3
2023-02-19T11:56:03.162Z,3
2023-02-19T11:57:03.166Z,3
2023-02-19T11:58:03.153Z,3
2023-02-19T11:59:03.153Z,3
2023-02-19T12:00:03.175Z,4
2023-02-19T12:01:03.161Z,4
2023-02-19T12:02:03.218Z,3
2023-02-19T12:03:03.165Z,4
2023-02-19T12:04:03.178Z,3
2023-02-19T12:05:03.274Z,3
2023-02-19T12:06:03.159Z,2
2023-02-19T12:07:03.175Z,3
2023-02-19T12:08:03.173Z,3
2023-02-19T12:09:03.171Z,3
2023-02-19T12:10:03.155Z,3
2023-02-19T12:12:03.160Z,2
2023-02-19T12:13:03.164Z,3
2023-02-19T12:14:03.176Z,2
2023-02-19T12:15:03.162Z,2
2023-02-19T12:16:03.321Z,3
2023-02-19T12:17:03.158Z,3
2023-02-19T12:18:03.164Z,3
2023-02-19T12:19:03.161Z,2
2023-02-19T12:20:03.189Z,3
2023-02-19T12:22:03.173Z,2
2023-02-19T12:23:03.159Z,2
2023-02-19T12:24:03.172Z,3
2023-02-19T12:25:03.186Z,3
2023-02-19T12:26:03.156Z,3
2023-02-19T12:27:03.180Z,2
2023-02-19T12:28:03.171Z,2
2023-02-19T12:29:03.160Z,3
2023-02-19T12:30:03.207Z,2
2023-02-19T12:32:03.210Z,2
2023-02-19T12:33:03.167Z,3
2023-02-19T12:34:03.164Z,3
2023-02-19T12:35:03.174Z,3
2023-02-19T12:36:03.170Z,3
2023-02-19T12:37:03.188Z,2
2023-02-19T12:38:03.160Z,3
2023-02-19T12:39:03.164Z,3
2023-02-19T12:40:03.165Z,3
2023-02-19T12:41:03.164Z,2
2023-02-19T12:42:03.164Z,3
2023-02-19T12:43:03.169Z,2
2023-02-19T12:44:03.179Z,2
2023-02-19T12:45:03.179Z,2
2023-02-19T12:46:03.233Z,2
2023-02-19T12:47:03.159Z,2
2023-02-19T12:48:03.164Z,2
2023-02-19T12:50:03.168Z,2
2023-02-19T12:51:03.176Z,2
2023-02-19T12:52:03.186Z,1
2023-02-19T12:53:03.178Z,1
2023-02-19T12:55:03.165Z,2
2023-02-19T12:56:03.176Z,2
2023-02-19T12:57:03.213Z,1
2023-02-19T12:58:04.351Z,1
2023-02-19T12:59:03.183Z,2
2023-02-19T13:00:03.171Z,2
2023-02-19T13:01:03.242Z,2
2023-02-19T13:02:03.220Z,2
2023-02-19T13:03:03.173Z,2
2023-02-19T13:04:03.187Z,1
2023-02-19T13:05:03.166Z,2
2023-02-19T13:06:03.193Z,2
2023-02-19T13:07:03.164Z,2
2023-02-19T13:08:03.175Z,2
2023-02-19T13:09:06.813Z,2
2023-02-19T13:10:03.322Z,2
2023-02-19T13:11:03.198Z,2
2023-02-19T13:12:03.175Z,3
2023-02-19T13:13:03.174Z,3
2023-02-19T13:14:03.175Z,2
2023-02-19T13:16:03.173Z,3
2023-02-19T13:17:03.233Z,3
2023-02-19T13:18:03.176Z,3
2023-02-19T13:19:03.173Z,3
2023-02-19T13:20:03.198Z,2
2023-02-19T13:21:03.178Z,2
2023-02-19T13:22:03.186Z,3
2023-02-19T13:23:03.184Z,2
2023-02-19T13:24:03.183Z,2
2023-02-19T13:26:03.197Z,2
2023-02-19T13:27:03.176Z,2
2023-02-19T13:28:03.180Z,2
2023-02-19T13:29:03.190Z,2
2023-02-19T13:30:03.235Z,2
2023-02-19T13:31:03.263Z,2
2023-02-19T13:32:03.293Z,2
2023-02-19T13:33:03.175Z,2
2023-02-19T13:34:03.180Z,3
2023-02-19T13:35:03.173Z,2
2023-02-19T13:36:03.174Z,3
2023-02-19T13:37:03.182Z,2
2023-02-19T13:38:03.176Z,3
2023-02-19T13:39:03.181Z,3
2023-02-19T13:40:03.185Z,2
2023-02-19T13:41:03.209Z,2
2023-02-19T13:42:03.179Z,2
2023-02-19T13:43:03.178Z,2
2023-02-19T13:44:03.181Z,2
2023-02-19T13:45:03.192Z,3
2023-02-19T13:47:03.181Z,3
2023-02-19T13:48:03.199Z,3
2023-02-19T13:49:03.198Z,3
2023-02-19T13:50:03.182Z,3
2023-02-19T13:51:03.189Z,2
2023-02-19T13:52:03.183Z,2
2023-02-19T13:53:03.262Z,3
2023-02-19T13:54:03.195Z,3
2023-02-19T13:55:03.188Z,3
2023-02-19T13:57:03.205Z,2
2023-02-19T13:58:03.205Z,2
2023-02-19T13:59:03.190Z,2
2023-02-19T14:00:03.194Z,2
2023-02-19T14:02:03.181Z,2
2023-02-19T14:03:03.178Z,3
2023-02-19T14:04:03.180Z,3
2023-02-19T14:05:03.202Z,3
2023-02-19T14:06:03.222Z,3
2023-02-19T14:08:03.197Z,3
2023-02-19T14:09:03.179Z,3
2023-02-19T14:10:03.196Z,3
2023-02-19T14:11:03.204Z,3
2023-02-19T14:12:03.204Z,3
2023-02-19T14:13:03.185Z,3
2023-02-19T14:14:03.195Z,3
2023-02-19T14:15:03.198Z,3
2023-02-19T14:16:03.262Z,3
2023-02-19T14:17:03.190Z,4
2023-02-19T14:19:03.190Z,3
2023-02-19T14:20:03.193Z,4
2023-02-19T14:21:03.172Z,4
2023-02-19T14:23:03.205Z,3
2023-02-19T14:24:03.189Z,4
2023-02-19T14:25:03.211Z,4
2023-02-19T14:26:03.220Z,4
2023-02-19T14:28:03.185Z,4
2023-02-19T14:29:03.187Z,4
2023-02-19T14:30:03.223Z,4
2023-02-19T14:31:03.240Z,5
2023-02-19T14:33:10.696Z,4
2023-02-19T14:34:03.537Z,4
2023-02-19T14:35:03.185Z,4
2023-02-19T14:36:03.205Z,4
2023-02-19T14:37:03.194Z,3
2023-02-19T14:38:03.192Z,3
2023-02-19T14:39:03.181Z,4
2023-02-19T14:40:03.199Z,4
2023-02-19T14:41:03.190Z,4
2023-02-19T14:42:03.195Z,4
2023-02-19T14:43:03.177Z,5
2023-02-19T14:44:03.272Z,4
2023-02-19T14:45:03.209Z,4
2023-02-19T14:46:03.203Z,5
2023-02-19T14:47:03.183Z,4
2023-02-19T14:48:03.182Z,4
2023-02-19T14:49:03.192Z,4
2023-02-19T14:50:03.194Z,5
2023-02-19T14:51:03.190Z,4
2023-02-19T14:52:03.182Z,5
2023-02-19T14:53:03.195Z,5
2023-02-19T14:54:03.197Z,4
2023-02-19T14:55:03.209Z,4
2023-02-19T14:56:03.190Z,5
2023-02-19T14:57:03.186Z,5
2023-02-19T14:58:03.185Z,5
2023-02-19T14:59:03.195Z,5
2023-02-19T15:00:03.258Z,5
2023-02-19T15:01:03.184Z,5
2023-02-19T15:02:03.182Z,5
2023-02-19T15:05:03.315Z,5
2023-02-19T15:06:03.184Z,6
2023-02-19T15:07:03.200Z,6
2023-02-19T15:08:03.189Z,5
2023-02-19T15:09:03.198Z,6
2023-02-19T15:10:04.986Z,6
2023-02-19T15:11:03.186Z,6
2023-02-19T15:12:03.185Z,5
2023-02-19T15:13:03.198Z,5
2023-02-19T15:14:03.194Z,6
2023-02-19T15:15:03.187Z,6
2023-02-19T15:16:03.251Z,6
2023-02-19T15:17:03.197Z,6
2023-02-19T15:18:03.199Z,5
2023-02-19T15:19:03.194Z,5
2023-02-19T15:20:03.412Z,6
2023-02-19T15:21:03.196Z,6
2023-02-19T15:22:03.188Z,5
2023-02-19T15:23:03.187Z,5
2023-02-19T15:24:03.217Z,5
2023-02-19T15:25:03.198Z,5